sensor_id;sensor_type;location;lat;lon;timestamp;pressure;altitude;pressure_sealevel;temperature;humidity
36138;BME280;67787;50.074;21.904;2023-04-26T19:44:54;99013.61;;;5.43;48.96
36138;BME280;67787;50.074;21.904;2023-04-26T19:47:22;99014.05;;;5.39;49.00
36138;BME280;67787;50.074;21.904;2023-04-26T19:49:50;99019.83;;;5.35;49.04
36138;BME280;67787;50.074;21.904;2023-04-26T19:52:19;99019.95;;;5.33;49.04
36138;BME280;67787;50.074;21.904;2023-04-26T19:54:47;99019.69;;;5.28;48.93
36138;BME280;67787;50.074;21.904;2023-04-26T19:57:15;99018.20;;;5.23;49.08
36138;BME280;67787;50.074;21.904;2023-04-26T19:59:43;99020.21;;;5.17;49.21
36138;BME280;67787;50.074;21.904;2023-04-26T20:02:12;99018.37;;;5.12;49.03
36138;BME280;67787;50.074;21.904;2023-04-26T20:04:40;99026.00;;;5.07;49.16
36138;BME280;67787;50.074;21.904;2023-04-26T20:07:08;99027.66;;;5.02;49.13
36138;BME280;67787;50.074;21.904;2023-04-26T20:09:36;99028.19;;;4.99;49.43
36138;BME280;67787;50.074;21.904;2023-04-26T20:12:05;99028.49;;;4.96;49.25
36138;BME280;67787;50.074;21.904;2023-04-26T20:14:33;99026.09;;;4.95;49.37
36138;BME280;67787;50.074;21.904;2023-04-26T20:17:20;99029.17;;;4.93;49.40
36138;BME280;67787;50.074;21.904;2023-04-26T20:19:48;99029.03;;;4.92;49.48
36138;BME280;67787;50.074;21.904;2023-04-26T20:22:16;99029.84;;;4.94;49.60
36138;BME280;67787;50.074;21.904;2023-04-26T20:24:44;99032.38;;;4.96;49.48
36138;BME280;67787;50.074;21.904;2023-04-26T20:27:12;99035.23;;;4.99;49.65
36138;BME280;67787;50.074;21.904;2023-04-26T20:29:40;99041.01;;;5.02;49.54
36138;BME280;67787;50.074;21.904;2023-04-26T20:32:08;99041.75;;;5.05;49.73
36138;BME280;67787;50.074;21.904;2023-04-26T20:34:36;99037.57;;;5.09;49.90
36138;BME280;67787;50.074;21.904;2023-04-26T20:37:04;99039.90;;;5.10;49.79
36138;BME280;67787;50.074;21.904;2023-04-26T20:39:32;99040.13;;;5.13;50.16
36138;BME280;67787;50.074;21.904;2023-04-26T20:42:00;99039.36;;;5.14;49.92
36138;BME280;67787;50.074;21.904;2023-04-26T20:44:30;99038.00;;;5.17;50.10
36138;BME280;67787;50.074;21.904;2023-04-26T20:46:58;99035.10;;;5.19;50.03
36138;BME280;67787;50.074;21.904;2023-04-26T20:49:26;99037.10;;;5.21;49.97
36138;BME280;67787;50.074;21.904;2023-04-26T20:51:54;99034.45;;;5.25;50.10
36138;BME280;67787;50.074;21.904;2023-04-26T20:54:23;99041.46;;;5.29;50.29
36138;BME280;67787;50.074;21.904;2023-04-26T20:56:51;99037.85;;;5.30;50.12
36138;BME280;67787;50.074;21.904;2023-04-26T20:59:19;99041.09;;;5.32;50.28
36138;BME280;67787;50.074;21.904;2023-04-26T21:01:47;99045.34;;;5.35;50.56
36138;BME280;67787;50.074;21.904;2023-04-26T21:04:15;99044.38;;;5.37;50.28
36138;BME280;67787;50.074;21.904;2023-04-26T21:06:43;99043.91;;;5.35;50.44
36138;BME280;67787;50.074;21.904;2023-04-26T21:09:11;99047.00;;;5.37;50.31
36138;BME280;67787;50.074;21.904;2023-04-26T21:11:39;99048.92;;;5.37;50.34
36138;BME280;67787;50.074;21.904;2023-04-26T21:14:09;99052.46;;;5.37;50.51
36138;BME280;67787;50.074;21.904;2023-04-26T21:16:36;99058.05;;;5.38;50.50
36138;BME280;67787;50.074;21.904;2023-04-26T21:19:04;99061.39;;;5.37;50.64
36138;BME280;67787;50.074;21.904;2023-04-26T21:21:32;99064.20;;;5.38;50.68
36138;BME280;67787;50.074;21.904;2023-04-26T21:24:01;99063.29;;;5.39;50.76
36138;BME280;67787;50.074;21.904;2023-04-26T21:26:29;99063.11;;;5.39;50.79
36138;BME280;67787;50.074;21.904;2023-04-26T21:28:58;99066.19;;;5.40;50.86
36138;BME280;67787;50.074;21.904;2023-04-26T21:31:25;99067.76;;;5.40;50.81
36138;BME280;67787;50.074;21.904;2023-04-26T21:33:53;99074.43;;;5.41;51.00
36138;BME280;67787;50.074;21.904;2023-04-26T21:36:21;99072.16;;;5.41;51.23
36138;BME280;67787;50.074;21.904;2023-04-26T21:38:50;99071.31;;;5.40;50.98
36138;BME280;67787;50.074;21.904;2023-04-26T21:41:17;99071.28;;;5.40;51.00
36138;BME280;67787;50.074;21.904;2023-04-26T21:43:46;99073.16;;;5.41;51.05
36138;BME280;67787;50.074;21.904;2023-04-26T21:46:14;99076.48;;;5.41;51.03
36138;BME280;67787;50.074;21.904;2023-04-26T21:48:42;99077.55;;;5.41;51.18
36138;BME280;67787;50.074;21.904;2023-04-26T21:51:10;99079.45;;;5.42;51.47
36138;BME280;67787;50.074;21.904;2023-04-26T21:53:38;99080.27;;;5.43;51.34
36138;BME280;67787;50.074;21.904;2023-04-26T21:56:07;99083.89;;;5.45;51.22
36138;BME280;67787;50.074;21.904;2023-04-26T21:58:36;99087.77;;;5.44;51.30
36138;BME280;67787;50.074;21.904;2023-04-26T22:01:13;99090.49;;;5.43;51.48
36138;BME280;67787;50.074;21.904;2023-04-26T22:03:41;99091.31;;;5.44;51.49
36138;BME280;67787;50.074;21.904;2023-04-26T22:06:10;99092.77;;;5.43;51.36
36138;BME280;67787;50.074;21.904;2023-04-26T22:08:38;99093.16;;;5.42;51.61
36138;BME280;67787;50.074;21.904;2023-04-26T22:11:06;99095.81;;;5.42;51.39
36138;BME280;67787;50.074;21.904;2023-04-26T22:13:34;99099.91;;;5.41;51.55
36138;BME280;67787;50.074;21.904;2023-04-26T22:16:02;99103.26;;;5.41;51.59
36138;BME280;67787;50.074;21.904;2023-04-26T22:18:30;99101.70;;;5.41;51.66
36138;BME280;67787;50.074;21.904;2023-04-26T22:20:59;99100.96;;;5.41;51.73
36138;BME280;67787;50.074;21.904;2023-04-26T22:23:27;99102.25;;;5.40;51.71
36138;BME280;67787;50.074;21.904;2023-04-26T22:25:55;99106.28;;;5.41;51.86
36138;BME280;67787;50.074;21.904;2023-04-26T22:28:25;99103.21;;;5.38;51.83
36138;BME280;67787;50.074;21.904;2023-04-26T22:30:53;99106.64;;;5.36;51.67
36138;BME280;67787;50.074;21.904;2023-04-26T22:33:21;99104.88;;;5.37;51.90
36138;BME280;67787;50.074;21.904;2023-04-26T22:35:49;99104.14;;;5.37;51.90
36138;BME280;67787;50.074;21.904;2023-04-26T22:38:17;99107.13;;;5.37;51.99
36138;BME280;67787;50.074;21.904;2023-04-26T22:40:45;99109.31;;;5.36;51.89
36138;BME280;67787;50.074;21.904;2023-04-26T22:43:13;99111.83;;;5.35;51.94
36138;BME280;67787;50.074;21.904;2023-04-26T22:45:41;99105.20;;;5.33;51.96
36138;BME280;67787;50.074;21.904;2023-04-26T22:48:09;99107.66;;;5.33;52.05
36138;BME280;67787;50.074;21.904;2023-04-26T22:50:37;99105.94;;;5.33;51.90
36138;BME280;67787;50.074;21.904;2023-04-26T22:53:05;99105.02;;;5.33;52.21
36138;BME280;67787;50.074;21.904;2023-04-26T22:55:33;99104.50;;;5.33;52.27
36138;BME280;67787;50.074;21.904;2023-04-26T22:58:01;99110.23;;;5.35;52.33
36138;BME280;67787;50.074;21.904;2023-04-26T23:00:29;99109.59;;;5.34;52.22
36138;BME280;67787;50.074;21.904;2023-04-26T23:02:57;99109.92;;;5.34;52.35
36138;BME280;67787;50.074;21.904;2023-04-26T23:05:25;99114.54;;;5.37;52.49
36138;BME280;67787;50.074;21.904;2023-04-26T23:07:53;99116.34;;;5.36;52.46
36138;BME280;67787;50.074;21.904;2023-04-26T23:10:21;99116.18;;;5.35;52.53
36138;BME280;67787;50.074;21.904;2023-04-26T23:12:49;99116.93;;;5.34;52.44
36138;BME280;67787;50.074;21.904;2023-04-26T23:15:17;99117.27;;;5.35;52.59
36138;BME280;67787;50.074;21.904;2023-04-26T23:17:45;99119.66;;;5.36;52.71
36138;BME280;67787;50.074;21.904;2023-04-26T23:20:13;99120.71;;;5.36;52.63
36138;BME280;67787;50.074;21.904;2023-04-26T23:22:42;99120.05;;;5.35;52.62
36138;BME280;67787;50.074;21.904;2023-04-26T23:25:10;99119.08;;;5.37;52.77
36138;BME280;67787;50.074;21.904;2023-04-26T23:27:38;99115.23;;;5.37;52.72
36138;BME280;67787;50.074;21.904;2023-04-26T23:30:06;99119.60;;;5.38;52.83
36138;BME280;67787;50.074;21.904;2023-04-26T23:32:34;99117.16;;;5.37;52.86
36138;BME280;67787;50.074;21.904;2023-04-26T23:35:02;99120.27;;;5.34;52.88
36138;BME280;67787;50.074;21.904;2023-04-26T23:37:31;99123.48;;;5.33;52.92
36138;BME280;67787;50.074;21.904;2023-04-26T23:39:59;99122.90;;;5.31;52.86
36138;BME280;67787;50.074;21.904;2023-04-26T23:42:27;99124.45;;;5.29;53.00
36138;BME280;67787;50.074;21.904;2023-04-26T23:44:56;99125.95;;;5.27;52.99
36138;BME280;67787;50.074;21.904;2023-04-26T23:47:23;99124.66;;;5.24;52.93
36138;BME280;67787;50.074;21.904;2023-04-26T23:49:51;99124.17;;;5.20;53.04
36138;BME280;67787;50.074;21.904;2023-04-26T23:52:19;99123.91;;;5.18;53.10
36138;BME280;67787;50.074;21.904;2023-04-26T23:54:47;99126.41;;;5.17;53.07
36138;BME280;67787;50.074;21.904;2023-04-26T23:57:16;99123.41;;;5.17;53.06
36138;BME280;67787;50.074;21.904;2023-04-26T23:59:43;99126.69;;;5.19;53.15
